createdAt,value
2022-12-06T00:01:09.035Z,92.72
2022-12-06T00:03:36.920Z,92.78
2022-12-06T00:06:15.160Z,91.94
2022-12-06T00:08:42.584Z,92.96
2022-12-06T00:11:12.307Z,92.86
2022-12-06T00:13:39.810Z,92.83
2022-12-06T00:16:09.531Z,92.12
2022-12-06T00:18:38.333Z,92.99
2022-12-06T00:21:12.740Z,93.46
2022-12-06T00:23:41.991Z,92.95
2022-12-06T00:26:10.021Z,92.95
2022-12-06T00:28:37.596Z,92.93
2022-12-06T00:31:07.679Z,93.34
2022-12-06T00:33:36.410Z,93.30
2022-12-06T00:36:09.911Z,93.48
2022-12-06T00:38:36.908Z,93.35
2022-12-06T00:41:12.387Z,93.12
2022-12-06T00:43:41.029Z,93.31
2022-12-06T00:46:11.211Z,93.92
2022-12-06T00:48:38.120Z,93.29
2022-12-06T00:51:05.245Z,93.49
2022-12-06T00:53:32.293Z,93.69
2022-12-06T00:55:59.021Z,92.74
2022-12-06T00:58:26.230Z,93.62
2022-12-06T01:00:53.230Z,93.77
2022-12-06T01:03:20.351Z,93.91
2022-12-06T01:05:49.907Z,93.10
2022-12-06T01:08:18.006Z,93.32
2022-12-06T01:10:54.922Z,92.12
2022-12-06T01:13:22.044Z,92.18
2022-12-06T01:15:48.900Z,93.50
2022-12-06T01:18:15.958Z,93.27
2022-12-06T01:20:42.713Z,93.09
2022-12-06T01:23:09.527Z,93.03
2022-12-06T01:25:36.738Z,93.33
2022-12-06T01:28:04.417Z,93.03
2022-12-06T01:30:31.347Z,93.56
2022-12-06T01:32:58.202Z,93.43
2022-12-06T01:35:24.945Z,92.52
2022-12-06T01:37:51.703Z,92.64
2022-12-06T01:40:18.498Z,92.91
2022-12-06T01:42:45.350Z,92.48
2022-12-06T01:45:12.299Z,92.24
2022-12-06T01:47:41.210Z,92.45
2022-12-06T01:50:20.668Z,92.35
2022-12-06T01:53:08.588Z,92.68
2022-12-06T01:55:37.876Z,93.01
2022-12-06T01:58:11.674Z,92.26
2022-12-06T02:00:38.741Z,92.35
2022-12-06T02:03:08.530Z,92.46
2022-12-06T02:05:40.723Z,91.17
2022-12-06T02:08:10.001Z,91.01
2022-12-06T02:10:37.825Z,90.88
2022-12-06T02:13:05.143Z,91.01
2022-12-06T02:16:01.448Z,90.73
2022-12-06T02:18:54.374Z,90.44
2022-12-06T02:21:27.376Z,90.67
2022-12-06T02:24:23.026Z,90.69
2022-12-06T02:26:52.425Z,90.55
2022-12-06T02:29:37.422Z,90.43
2022-12-06T02:32:10.495Z,90.73
2022-12-06T02:34:50.153Z,90.90
2022-12-06T02:37:28.835Z,90.85
2022-12-06T02:39:58.856Z,90.80
2022-12-06T02:42:41.732Z,89.74
2022-12-06T02:45:14.796Z,90.25
2022-12-06T02:47:42.834Z,89.29
2022-12-06T02:50:14.623Z,89.24
2022-12-06T02:52:43.404Z,88.85
2022-12-06T02:55:10.630Z,88.75
2022-12-06T02:57:48.886Z,88.80
2022-12-06T03:00:29.260Z,89.34
2022-12-06T03:03:05.003Z,89.48
2022-12-06T03:06:03.091Z,89.20
2022-12-06T03:08:50.104Z,88.73
2022-12-06T03:11:17.400Z,88.65
2022-12-06T03:14:08.965Z,87.88
2022-12-06T03:16:48.703Z,88.38
2022-12-06T03:19:16.652Z,89.02
2022-12-06T03:21:48.410Z,88.58
2022-12-06T03:24:16.365Z,88.80
2022-12-06T03:26:48.001Z,89.14
2022-12-06T03:29:17.955Z,89.20
2022-12-06T03:31:45.755Z,89.62
2022-12-06T03:34:19.548Z,89.74
2022-12-06T03:36:48.144Z,89.40
2022-12-06T03:39:16.867Z,89.52
2022-12-06T03:41:50.535Z,89.27
2022-12-06T03:44:17.505Z,89.08
2022-12-06T03:46:57.078Z,88.54
2022-12-06T03:49:28.769Z,88.28
2022-12-06T03:51:55.877Z,88.61
2022-12-06T03:54:22.671Z,88.39
2022-12-06T03:56:49.509Z,88.41
2022-12-06T03:59:16.341Z,89.39
2022-12-06T04:01:43.222Z,87.98
2022-12-06T04:04:11.047Z,88.36
2022-12-06T04:06:38.049Z,87.63
2022-12-06T04:09:23.756Z,88.07
2022-12-06T04:11:50.571Z,87.61
2022-12-06T04:14:17.476Z,87.57
2022-12-06T04:17:02.826Z,87.73
2022-12-06T04:19:29.729Z,87.74
2022-12-06T04:22:14.614Z,87.66
2022-12-06T04:24:41.455Z,87.42
2022-12-06T04:27:28.029Z,86.69
2022-12-06T04:30:13.684Z,86.71
2022-12-06T04:32:58.687Z,87.09
2022-12-06T04:35:43.794Z,87.54
2022-12-06T04:38:29.335Z,87.65
2022-12-06T04:40:56.151Z,87.96
2022-12-06T04:43:41.383Z,88.52
2022-12-06T04:46:12.556Z,88.11
2022-12-06T04:48:39.911Z,88.67
2022-12-06T04:51:06.848Z,88.58
2022-12-06T04:53:33.922Z,87.73
2022-12-06T04:56:01.806Z,87.20
2022-12-06T04:58:28.763Z,87.34
2022-12-06T05:00:55.784Z,88.17
2022-12-06T05:03:22.781Z,88.47
2022-12-06T05:05:49.858Z,87.90
2022-12-06T05:08:16.751Z,86.68
2022-12-06T05:10:48.050Z,86.87
2022-12-06T05:13:15.972Z,87.08
2022-12-06T05:15:54.077Z,87.31
2022-12-06T05:18:21.789Z,87.42
2022-12-06T05:20:48.723Z,86.45
2022-12-06T05:23:15.594Z,86.36
2022-12-06T05:25:42.419Z,86.53
2022-12-06T05:28:09.723Z,86.64
2022-12-06T05:30:36.682Z,85.90
2022-12-06T05:33:03.602Z,85.94
2022-12-06T05:35:30.430Z,86.26
2022-12-06T05:37:57.306Z,87.14
2022-12-06T05:40:24.252Z,87.24
2022-12-06T05:42:51.038Z,87.33
2022-12-06T05:45:17.989Z,87.07
2022-12-06T05:47:44.842Z,87.23
2022-12-06T05:50:11.787Z,86.69
2022-12-06T05:52:38.596Z,87.07
2022-12-06T05:55:05.668Z,87.05
2022-12-06T05:57:32.482Z,86.34
2022-12-06T05:59:59.494Z,85.64
2022-12-06T06:02:26.543Z,85.37
2022-12-06T06:04:53.406Z,86.11
2022-12-06T06:07:20.273Z,86.58
2022-12-06T06:09:47.015Z,86.47
2022-12-06T06:12:14.074Z,86.86
2022-12-06T06:14:40.882Z,87.64
2022-12-06T06:17:07.811Z,86.81
2022-12-06T06:19:34.701Z,86.39
2022-12-06T06:22:02.031Z,85.57
2022-12-06T06:24:28.814Z,86.46
2022-12-06T06:26:56.346Z,86.35
2022-12-06T06:29:23.245Z,85.99
2022-12-06T06:31:50.111Z,86.47
2022-12-06T06:34:16.905Z,86.59
2022-12-06T06:36:45.951Z,86.62
2022-12-06T06:39:13.472Z,87.54
2022-12-06T06:41:40.306Z,88.06
2022-12-06T06:44:07.111Z,87.58
2022-12-06T06:46:34.026Z,87.38
2022-12-06T06:49:00.881Z,88.17
2022-12-06T06:51:27.707Z,87.86
2022-12-06T06:53:54.465Z,87.78
2022-12-06T06:56:21.365Z,88.19
2022-12-06T06:58:48.115Z,88.48
2022-12-06T07:01:18.859Z,88.14
2022-12-06T07:03:45.790Z,88.28
2022-12-06T07:06:12.636Z,88.24
2022-12-06T07:08:41.762Z,88.44
2022-12-06T07:11:10.082Z,88.77
2022-12-06T07:13:38.708Z,89.10
2022-12-06T07:16:08.014Z,89.01
2022-12-06T07:18:35.213Z,88.26
2022-12-06T07:21:06.977Z,88.95
2022-12-06T07:23:34.859Z,88.58
2022-12-06T07:26:14.893Z,87.93
2022-12-06T07:28:43.564Z,87.73
2022-12-06T07:31:12.101Z,87.56
2022-12-06T07:33:39.716Z,87.07
2022-12-06T07:36:12.485Z,87.48
2022-12-06T07:38:41.180Z,87.05
2022-12-06T07:41:29.140Z,87.50
2022-12-06T07:44:16.267Z,87.78
2022-12-06T07:46:43.755Z,88.27
2022-12-06T07:49:10.883Z,87.40
2022-12-06T07:51:37.873Z,88.09
2022-12-06T07:54:04.799Z,88.24
2022-12-06T07:56:31.748Z,88.21
2022-12-06T07:58:58.538Z,89.27
2022-12-06T08:01:25.686Z,88.65
2022-12-06T08:03:53.689Z,88.79
2022-12-06T08:06:20.522Z,88.72
2022-12-06T08:08:47.303Z,88.62
2022-12-06T08:11:14.213Z,88.09
2022-12-06T08:13:40.981Z,88.34
2022-12-06T08:16:10.120Z,88.61
2022-12-06T08:18:37.685Z,88.12
2022-12-06T08:21:04.890Z,87.45
2022-12-06T08:23:34.332Z,87.63
2022-12-06T08:26:04.721Z,87.04
2022-12-06T08:28:32.976Z,87.63
2022-12-06T08:31:03.332Z,87.85
2022-12-06T08:33:32.820Z,86.64
2022-12-06T08:35:59.757Z,87.19
2022-12-06T08:38:26.680Z,86.49
2022-12-06T08:40:53.553Z,86.82
2022-12-06T08:43:20.326Z,86.83
2022-12-06T08:45:51.804Z,86.72
2022-12-06T08:48:18.994Z,86.34
2022-12-06T08:50:45.867Z,85.96
2022-12-06T08:53:12.780Z,85.95
2022-12-06T08:55:41.379Z,85.17
2022-12-06T08:58:08.575Z,85.61
2022-12-06T09:00:35.375Z,86.32
2022-12-06T09:03:02.182Z,86.75
2022-12-06T09:05:28.991Z,86.58
2022-12-06T09:07:55.844Z,86.71
2022-12-06T09:10:22.669Z,86.60
2022-12-06T09:12:49.635Z,87.86
2022-12-06T09:15:16.523Z,87.14
2022-12-06T09:17:43.429Z,87.33
2022-12-06T09:20:11.158Z,86.64
2022-12-06T09:22:38.294Z,87.48
2022-12-06T09:25:05.357Z,88.20
2022-12-06T09:27:32.248Z,86.96
2022-12-06T09:29:59.531Z,86.72
2022-12-06T09:32:26.611Z,87.06
2022-12-06T09:34:53.428Z,86.94
2022-12-06T09:37:20.319Z,86.23
2022-12-06T09:39:52.383Z,85.65
2022-12-06T09:42:37.562Z,85.26
2022-12-06T09:45:16.370Z,84.78
2022-12-06T09:48:08.414Z,84.26
2022-12-06T09:50:50.099Z,83.86
2022-12-06T09:53:23.933Z,83.90
2022-12-06T09:56:13.474Z,83.27
2022-12-06T09:58:49.032Z,82.38
2022-12-06T10:01:53.099Z,81.32
2022-12-06T10:04:26.234Z,81.03
2022-12-06T10:06:52.958Z,80.33
2022-12-06T10:10:01.621Z,79.24
2022-12-06T10:12:53.019Z,80.57
2022-12-06T10:15:19.860Z,80.10
2022-12-06T10:18:06.287Z,81.25
2022-12-06T10:20:45.830Z,82.19
2022-12-06T10:23:51.169Z,82.59
2022-12-06T10:26:49.177Z,81.76
2022-12-06T10:29:29.067Z,81.17
2022-12-06T10:32:12.656Z,81.54
2022-12-06T10:34:52.139Z,81.19
2022-12-06T10:37:37.771Z,81.87
2022-12-06T10:40:22.348Z,81.90
2022-12-06T10:42:58.345Z,82.02
2022-12-06T10:45:45.202Z,82.30
2022-12-06T10:48:34.928Z,81.89
2022-12-06T10:51:12.355Z,82.15
2022-12-06T10:53:44.572Z,81.77
2022-12-06T10:56:21.481Z,82.05
2022-12-06T10:59:00.054Z,81.17
2022-12-06T11:01:29.572Z,80.36
2022-12-06T11:04:26.513Z,80.03
2022-12-06T11:06:56.800Z,79.97
2022-12-06T11:09:39.886Z,80.99
2022-12-06T11:12:28.039Z,80.34
2022-12-06T11:15:06.071Z,80.89
2022-12-06T11:17:37.756Z,81.18
2022-12-06T11:20:22.828Z,81.30
2022-12-06T11:23:21.444Z,80.76
2022-12-06T11:26:00.486Z,79.81
2022-12-06T11:28:38.826Z,79.64
2022-12-06T11:31:15.760Z,80.58
2022-12-06T11:33:42.997Z,80.94
2022-12-06T11:36:10.744Z,80.60
2022-12-06T11:38:40.117Z,80.87
2022-12-06T11:41:10.788Z,80.61
2022-12-06T11:43:37.968Z,80.90
2022-12-06T11:46:06.237Z,81.20
2022-12-06T11:48:35.115Z,80.96
2022-12-06T11:51:02.263Z,81.54
2022-12-06T11:53:50.396Z,81.67
2022-12-06T11:56:35.492Z,81.58
2022-12-06T11:59:21.900Z,81.85
2022-12-06T12:01:50.587Z,81.62
2022-12-06T12:04:42.773Z,81.96
2022-12-06T12:07:09.613Z,81.83
2022-12-06T12:09:47.568Z,82.18
2022-12-06T12:12:22.963Z,82.39
2022-12-06T12:14:57.631Z,82.23
2022-12-06T12:17:29.817Z,82.88
2022-12-06T12:20:08.924Z,82.31
2022-12-06T12:22:39.017Z,82.60
2022-12-06T12:25:27.596Z,82.01
2022-12-06T12:27:56.278Z,81.52
2022-12-06T12:30:32.796Z,80.05
2022-12-06T12:33:05.900Z,79.05
2022-12-06T12:35:35.757Z,79.46
2022-12-06T12:38:12.592Z,79.36
2022-12-06T12:40:44.986Z,80.00
2022-12-06T12:43:11.795Z,81.67
2022-12-06T12:45:41.018Z,81.60
2022-12-06T12:48:25.524Z,82.58
2022-12-06T12:51:03.562Z,81.97
2022-12-06T12:53:38.845Z,81.05
2022-12-06T12:56:24.998Z,82.16
2022-12-06T12:58:54.807Z,83.22
2022-12-06T13:01:24.787Z,83.04
2022-12-06T13:04:04.986Z,83.47
2022-12-06T13:06:47.604Z,83.35
2022-12-06T13:09:23.095Z,83.38
2022-12-06T13:11:54.338Z,83.69
2022-12-06T13:14:22.386Z,84.26
2022-12-06T13:16:52.498Z,83.58
2022-12-06T13:19:21.079Z,80.82
2022-12-06T13:21:48.419Z,78.72
2022-12-06T13:24:23.813Z,77.50
2022-12-06T13:26:57.914Z,80.44
2022-12-06T13:29:30.386Z,81.04
2022-12-06T13:31:58.695Z,82.54
2022-12-06T13:34:51.903Z,83.32
2022-12-06T13:37:52.477Z,83.96
2022-12-06T13:40:45.038Z,83.59
2022-12-06T13:43:24.042Z,82.21
2022-12-06T13:45:51.763Z,78.90
2022-12-06T13:48:24.766Z,79.52
2022-12-06T13:51:01.564Z,81.68
2022-12-06T13:53:33.868Z,82.45
2022-12-06T13:56:27.012Z,81.44
2022-12-06T13:58:58.516Z,81.70
2022-12-06T14:01:42.759Z,82.75
2022-12-06T14:09:44.799Z,83.22
2022-12-06T14:12:20.865Z,83.10
2022-12-06T14:15:01.423Z,84.25
2022-12-06T14:20:31.577Z,84.58
2022-12-06T14:22:58.827Z,84.12
2022-12-06T14:25:28.777Z,84.57
2022-12-06T14:28:07.342Z,83.64
2022-12-06T14:30:34.595Z,84.58
2022-12-06T14:33:01.807Z,85.01
2022-12-06T14:35:37.624Z,85.28
2022-12-06T14:38:23.356Z,85.39
2022-12-06T14:41:10.083Z,86.01
2022-12-06T14:43:37.918Z,84.58
2022-12-06T14:46:12.227Z,85.21
2022-12-06T14:48:57.908Z,85.10
2022-12-06T14:51:27.196Z,84.98
2022-12-06T14:53:54.130Z,85.51
2022-12-06T14:56:27.154Z,84.90
2022-12-06T14:58:57.101Z,85.13
2022-12-06T15:01:26.579Z,85.33
2022-12-06T15:04:01.762Z,86.21
2022-12-06T15:06:30.658Z,85.41
2022-12-06T15:08:57.403Z,85.03
2022-12-06T15:11:48.823Z,83.51
2022-12-06T15:14:30.861Z,84.65
2022-12-06T15:17:02.304Z,84.43
2022-12-06T15:19:34.962Z,85.47
2022-12-06T15:22:02.074Z,85.23
2022-12-06T15:24:29.370Z,85.91
2022-12-06T15:26:56.358Z,85.58
2022-12-06T15:29:23.630Z,85.25
2022-12-06T15:31:54.331Z,85.64
2022-12-06T15:34:27.105Z,84.41
2022-12-06T15:37:15.203Z,84.40
2022-12-06T15:39:43.291Z,85.93
2022-12-06T15:42:17.529Z,86.38
2022-12-06T15:44:49.110Z,86.12
2022-12-06T15:47:16.179Z,86.37
2022-12-06T15:49:43.291Z,86.07
2022-12-06T15:52:19.600Z,85.87
2022-12-06T15:54:46.712Z,85.24
2022-12-06T15:57:13.674Z,85.70
2022-12-06T15:59:40.615Z,85.70
2022-12-06T16:02:15.890Z,85.76
2022-12-06T16:04:43.384Z,85.50
2022-12-06T16:07:10.852Z,85.66
2022-12-06T16:09:38.178Z,85.79
2022-12-06T16:12:05.370Z,85.10
2022-12-06T16:14:32.395Z,84.50
2022-12-06T16:16:59.247Z,83.36
2022-12-06T16:19:46.045Z,83.10
2022-12-06T16:22:12.967Z,81.80
2022-12-06T16:24:39.855Z,81.25
2022-12-06T16:27:06.765Z,80.86
2022-12-06T16:29:33.711Z,80.28
2022-12-06T16:32:00.673Z,80.98
2022-12-06T16:34:28.999Z,81.08
2022-12-06T16:37:04.391Z,80.55
2022-12-06T16:39:33.748Z,82.17
2022-12-06T16:42:01.526Z,83.05
2022-12-06T16:44:28.834Z,85.01
2022-12-06T16:46:55.790Z,84.75
2022-12-06T16:49:45.724Z,86.03
2022-12-06T16:52:14.244Z,85.80
2022-12-06T16:54:41.812Z,85.58
2022-12-06T16:57:12.905Z,86.02
2022-12-06T16:59:40.618Z,85.85
2022-12-06T17:02:23.161Z,84.93
2022-12-06T17:04:49.954Z,85.38
2022-12-06T17:07:16.688Z,86.49
2022-12-06T17:09:43.617Z,86.04
2022-12-06T17:12:13.252Z,85.30
2022-12-06T17:14:40.303Z,85.65
2022-12-06T17:17:07.480Z,85.51
2022-12-06T17:19:34.555Z,85.45
2022-12-06T17:22:02.387Z,84.49
2022-12-06T17:24:29.795Z,85.03
2022-12-06T17:26:56.756Z,84.95
2022-12-06T17:29:24.131Z,85.47
2022-12-06T17:31:51.951Z,84.89
2022-12-06T17:34:20.102Z,84.79
2022-12-06T17:36:48.911Z,83.36
2022-12-06T17:39:18.458Z,84.23
2022-12-06T17:42:03.779Z,84.30
2022-12-06T17:44:30.606Z,83.92
2022-12-06T17:46:57.516Z,83.79
2022-12-06T17:49:25.921Z,84.22
2022-12-06T17:51:53.047Z,84.45
2022-12-06T17:54:20.533Z,84.69
2022-12-06T17:56:49.462Z,85.17
2022-12-06T17:59:18.850Z,85.14
2022-12-06T18:04:33.253Z,86.03
2022-12-06T18:07:00.120Z,86.80
2022-12-06T18:09:27.021Z,87.18
2022-12-06T18:11:55.732Z,87.06
2022-12-06T18:14:22.672Z,86.01
2022-12-06T18:16:49.611Z,86.11
2022-12-06T18:19:18.384Z,86.50
2022-12-06T18:21:45.551Z,87.04
2022-12-06T18:24:24.618Z,86.72
2022-12-06T18:26:53.722Z,86.36
2022-12-06T18:29:22.193Z,86.96
2022-12-06T18:31:49.433Z,87.22
2022-12-06T18:34:16.776Z,87.47
2022-12-06T18:36:43.631Z,87.49
2022-12-06T18:39:16.157Z,87.19
2022-12-06T18:41:44.540Z,86.50
2022-12-06T18:44:12.072Z,86.54
2022-12-06T18:46:39.606Z,87.30
2022-12-06T18:49:06.910Z,87.35
2022-12-06T18:51:35.417Z,87.12
2022-12-06T18:54:04.608Z,86.90
2022-12-06T18:56:33.466Z,87.69
2022-12-06T18:59:01.890Z,87.96
2022-12-06T19:01:31.131Z,87.30
2022-12-06T19:04:03.303Z,88.36
2022-12-06T19:06:33.400Z,88.47
2022-12-06T19:09:02.464Z,87.93
2022-12-06T19:11:29.304Z,87.77
2022-12-06T19:13:58.184Z,88.34
2022-12-06T19:16:37.045Z,88.63
2022-12-06T19:19:08.784Z,89.12
2022-12-06T19:21:38.601Z,88.07
2022-12-06T19:24:05.751Z,88.02
2022-12-06T19:26:34.061Z,88.24
2022-12-06T19:29:00.950Z,88.23
2022-12-06T19:31:29.617Z,88.00
2022-12-06T19:33:56.447Z,87.52
2022-12-06T19:36:27.086Z,88.31
2022-12-06T19:39:06.246Z,86.92
2022-12-06T19:41:53.902Z,86.77
2022-12-06T19:44:20.950Z,87.50
2022-12-06T19:46:48.405Z,87.97
2022-12-06T19:49:16.741Z,87.08
2022-12-06T19:51:45.568Z,87.98
2022-12-06T19:54:22.520Z,88.83
2022-12-06T19:56:51.288Z,88.94
2022-12-06T19:59:18.115Z,88.18
2022-12-06T20:01:46.595Z,88.00
2022-12-06T20:04:19.585Z,88.57
2022-12-06T20:06:46.548Z,88.72
2022-12-06T20:09:14.425Z,88.66
2022-12-06T20:12:01.209Z,89.37
2022-12-06T20:14:45.664Z,88.51
2022-12-06T20:17:17.881Z,88.22
2022-12-06T20:19:49.130Z,87.91
2022-12-06T20:22:17.872Z,87.61
2022-12-06T20:24:44.971Z,87.27
2022-12-06T20:27:11.997Z,87.50
2022-12-06T20:29:38.823Z,87.93
2022-12-06T20:32:05.967Z,88.53
2022-12-06T20:34:34.938Z,88.68
2022-12-06T20:37:03.999Z,88.68
2022-12-06T20:39:33.010Z,89.27
2022-12-06T20:42:01.059Z,88.86
2022-12-06T20:44:27.866Z,88.11
2022-12-06T20:46:54.741Z,88.68
2022-12-06T20:49:21.658Z,88.48
2022-12-06T20:51:52.963Z,89.37
2022-12-06T20:54:21.291Z,88.93
2022-12-06T20:56:51.588Z,88.06
2022-12-06T20:59:19.079Z,88.08
2022-12-06T21:01:45.990Z,88.30
2022-12-06T21:04:13.819Z,88.88
2022-12-06T21:06:40.849Z,88.21
2022-12-06T21:09:08.418Z,88.68
2022-12-06T21:11:35.327Z,88.86
2022-12-06T21:14:03.699Z,89.26
2022-12-06T21:16:31.686Z,88.09
2022-12-06T21:19:03.839Z,88.74
2022-12-06T21:21:34.587Z,87.74
2022-12-06T21:24:06.065Z,89.00
2022-12-06T21:26:33.467Z,88.77
2022-12-06T21:29:00.286Z,89.40
2022-12-06T21:31:33.077Z,89.26
2022-12-06T21:34:00.007Z,88.79
2022-12-06T21:36:26.858Z,89.02
2022-12-06T21:38:54.165Z,87.75
2022-12-06T21:41:21.556Z,87.65
2022-12-06T21:43:48.452Z,87.83
2022-12-06T21:46:18.980Z,87.52
2022-12-06T21:48:53.179Z,87.61
2022-12-06T21:51:20.606Z,87.23
2022-12-06T21:53:48.473Z,87.01
2022-12-06T21:56:20.210Z,86.81
2022-12-06T21:58:47.659Z,86.96
2022-12-06T22:01:17.623Z,87.26
2022-12-06T22:03:49.610Z,86.33
2022-12-06T22:06:20.271Z,87.53
2022-12-06T22:08:50.091Z,85.92
2022-12-06T22:11:21.171Z,86.21
2022-12-06T22:13:51.216Z,86.46
2022-12-06T22:16:19.888Z,85.32
2022-12-06T22:18:49.784Z,84.85
2022-12-06T22:21:22.104Z,85.72
2022-12-06T22:23:49.309Z,86.06
2022-12-06T22:26:18.990Z,84.71
2022-12-06T22:28:46.317Z,86.06
2022-12-06T22:31:22.420Z,87.26
2022-12-06T22:33:50.278Z,85.95
2022-12-06T22:36:17.843Z,86.06
2022-12-06T22:38:44.644Z,86.15
2022-12-06T22:41:11.439Z,86.00
2022-12-06T22:43:38.377Z,86.94
2022-12-06T22:46:07.890Z,87.00
2022-12-06T22:48:35.376Z,88.17
2022-12-06T22:51:08.267Z,87.62
2022-12-06T22:53:35.257Z,87.74
2022-12-06T22:56:02.134Z,87.68
2022-12-06T22:58:29.079Z,87.74
2022-12-06T23:00:55.942Z,86.77
2022-12-06T23:03:22.771Z,87.55
2022-12-06T23:05:58.223Z,87.89
2022-12-06T23:08:25.433Z,87.22
2022-12-06T23:11:19.587Z,87.62
2022-12-06T23:13:46.755Z,87.36
2022-12-06T23:16:21.748Z,87.13
2022-12-06T23:18:49.368Z,86.77
2022-12-06T23:21:17.483Z,87.76
2022-12-06T23:23:47.453Z,88.22
2022-12-06T23:26:16.595Z,87.47
2022-12-06T23:28:44.049Z,86.93
2022-12-06T23:31:18.125Z,87.28
2022-12-06T23:33:45.836Z,87.28
2022-12-06T23:36:15.518Z,88.25
2022-12-06T23:38:42.609Z,89.14
2022-12-06T23:41:18.044Z,89.71
2022-12-06T23:43:45.267Z,90.40
2022-12-06T23:46:18.968Z,89.12
2022-12-06T23:48:48.744Z,89.75
2022-12-06T23:51:17.351Z,89.07
2022-12-06T23:53:44.976Z,88.70
2022-12-06T23:56:16.999Z,88.94
2022-12-06T23:58:45.518Z,90.11
